Brandon, Wisconsin
Current Conditions -  °F | °C
As of 12:53 PM on Tuesday 27 Jan 2015 (Local Time) from KFLD Reporting Station
Overcast Overcast  
Wind Chill: 23°   Ceiling: 3600
Heat Index: 29°   Visibility: 10mi
Dew Point: 17°   Wind: 6mph
Humidity: 61%   Direction: 40°NE
Pressure: 30.19"   Gusts: NA
Location:  43.74°N, 88.78°W
Report Text: KFLD 271853Z AUTO 04005KT 10SM OVC036 M02/M08 A3019 RMK AO2 SLP235 T10171083
Loading
Personal Weather Stations






























Interactive Weather Map New forecast layout! Learn more

10-Day Weather Forecast

Advertisements
Track Severe Weather on mobile